sensor_id;sensor_type;location;lat;lon;timestamp;pressure;altitude;pressure_sealevel;temperature;humidity
35226;BME280;21813;49.686;21.766;2023-03-13T00:01:29;98164.91;;;1.95;73.79
35226;BME280;21813;49.686;21.766;2023-03-13T00:03:56;98158.13;;;1.94;74.20
35226;BME280;21813;49.686;21.766;2023-03-13T00:06:24;98160.31;;;2.02;72.61
35226;BME280;21813;49.686;21.766;2023-03-13T00:08:53;98153.44;;;2.02;72.59
35226;BME280;21813;49.686;21.766;2023-03-13T00:11:19;98158.25;;;2.08;72.45
35226;BME280;21813;49.686;21.766;2023-03-13T00:13:46;98146.34;;;2.07;71.16
35226;BME280;21813;49.686;21.766;2023-03-13T00:16:14;98152.66;;;2.17;71.53
35226;BME280;21813;49.686;21.766;2023-03-13T00:18:49;98150.88;;;2.19;70.69
35226;BME280;21813;49.686;21.766;2023-03-13T00:21:16;98159.34;;;2.21;70.93
35226;BME280;21813;49.686;21.766;2023-03-13T00:23:45;98150.69;;;2.22;70.85
35226;BME280;21813;49.686;21.766;2023-03-13T00:26:13;98155.63;;;2.27;70.38
35226;BME280;21813;49.686;21.766;2023-03-13T00:28:40;98158.28;;;2.26;70.01
35226;BME280;21813;49.686;21.766;2023-03-13T00:33:38;98146.78;;;2.33;69.19
35226;BME280;21813;49.686;21.766;2023-03-13T00:36:06;98132.25;;;2.32;69.31
35226;BME280;21813;49.686;21.766;2023-03-13T00:38:34;98132.84;;;2.37;68.86
35226;BME280;21813;49.686;21.766;2023-03-13T00:41:04;98128.53;;;2.37;68.75
35226;BME280;21813;49.686;21.766;2023-03-13T00:43:32;98125.81;;;2.40;67.85
35226;BME280;21813;49.686;21.766;2023-03-13T00:45:58;98125.91;;;2.39;67.75
35226;BME280;21813;49.686;21.766;2023-03-13T00:48:24;98121.41;;;2.42;67.99
35226;BME280;21813;49.686;21.766;2023-03-13T00:50:50;98125.72;;;2.42;68.44
35226;BME280;21813;49.686;21.766;2023-03-13T00:53:18;98134.22;;;2.44;67.68
35226;BME280;21813;49.686;21.766;2023-03-13T00:55:55;98135.88;;;2.45;67.66
35226;BME280;21813;49.686;21.766;2023-03-13T00:58:23;98137.63;;;2.44;67.87
35226;BME280;21813;49.686;21.766;2023-03-13T01:00:49;98143.50;;;2.46;67.74
35226;BME280;21813;49.686;21.766;2023-03-13T01:03:16;98150.25;;;2.49;67.71
35226;BME280;21813;49.686;21.766;2023-03-13T01:05:41;98149.31;;;2.50;67.94
35226;BME280;21813;49.686;21.766;2023-03-13T01:08:09;98143.44;;;2.48;67.98
35226;BME280;21813;49.686;21.766;2023-03-13T01:10:34;98136.63;;;2.47;67.52
35226;BME280;21813;49.686;21.766;2023-03-13T01:13:03;98135.56;;;2.51;67.78
35226;BME280;21813;49.686;21.766;2023-03-13T01:15:32;98147.50;;;2.52;67.82
35226;BME280;21813;49.686;21.766;2023-03-13T01:17:58;98142.38;;;2.52;66.65
35226;BME280;21813;49.686;21.766;2023-03-13T01:20:30;98127.94;;;2.49;67.09
35226;BME280;21813;49.686;21.766;2023-03-13T01:22:59;98133.75;;;2.53;67.02
35226;BME280;21813;49.686;21.766;2023-03-13T01:25:28;98124.34;;;2.52;66.55
35226;BME280;21813;49.686;21.766;2023-03-13T01:27:54;98127.69;;;2.54;66.05
35226;BME280;21813;49.686;21.766;2023-03-13T01:30:19;98130.28;;;2.54;66.06
35226;BME280;21813;49.686;21.766;2023-03-13T01:32:46;98124.19;;;2.55;65.91
35226;BME280;21813;49.686;21.766;2023-03-13T01:35:13;98129.34;;;2.55;66.07
35226;BME280;21813;49.686;21.766;2023-03-13T01:37:43;98126.69;;;2.56;66.72
35226;BME280;21813;49.686;21.766;2023-03-13T01:40:12;98124.19;;;2.55;66.01
35226;BME280;21813;49.686;21.766;2023-03-13T01:42:55;98124.94;;;2.57;66.17
35226;BME280;21813;49.686;21.766;2023-03-13T01:51:36;98113.00;;;2.56;68.54
35226;BME280;21813;49.686;21.766;2023-03-13T01:56:48;98125.94;;;2.54;69.90
35226;BME280;21813;49.686;21.766;2023-03-13T01:59:28;98120.78;;;2.54;69.98
35226;BME280;21813;49.686;21.766;2023-03-13T02:01:58;98115.75;;;2.53;69.92
35226;BME280;21813;49.686;21.766;2023-03-13T02:04:34;98116.63;;;2.52;70.52
35226;BME280;21813;49.686;21.766;2023-03-13T02:07:13;98127.53;;;2.57;71.02
35226;BME280;21813;49.686;21.766;2023-03-13T02:09:43;98121.72;;;2.53;71.03
35226;BME280;21813;49.686;21.766;2023-03-13T02:12:35;98123.28;;;2.56;70.80
35226;BME280;21813;49.686;21.766;2023-03-13T02:15:19;98121.47;;;2.58;71.16
35226;BME280;21813;49.686;21.766;2023-03-13T02:17:49;98123.03;;;2.60;71.28
35226;BME280;21813;49.686;21.766;2023-03-13T02:20:19;98123.94;;;2.59;70.89
35226;BME280;21813;49.686;21.766;2023-03-13T02:28:14;98133.44;;;2.59;70.17
35226;BME280;21813;49.686;21.766;2023-03-13T02:30:43;98123.28;;;2.56;70.45
35226;BME280;21813;49.686;21.766;2023-03-13T02:33:14;98119.63;;;2.60;69.90
35226;BME280;21813;49.686;21.766;2023-03-13T02:35:42;98131.59;;;2.61;69.94
35226;BME280;21813;49.686;21.766;2023-03-13T02:38:13;98128.44;;;2.56;70.05
35226;BME280;21813;49.686;21.766;2023-03-13T02:40:43;98128.44;;;2.56;70.14
35226;BME280;21813;49.686;21.766;2023-03-13T02:43:16;98118.00;;;2.59;69.77
35226;BME280;21813;49.686;21.766;2023-03-13T02:46:17;98129.94;;;2.60;70.28
35226;BME280;21813;49.686;21.766;2023-03-13T02:48:49;98118.97;;;2.56;69.84
35226;BME280;21813;49.686;21.766;2023-03-13T02:51:32;98125.72;;;2.59;70.60
35226;BME280;21813;49.686;21.766;2023-03-13T02:54:16;98129.09;;;2.59;70.59
35226;BME280;21813;49.686;21.766;2023-03-13T02:56:46;98131.59;;;2.61;70.50
35226;BME280;21813;49.686;21.766;2023-03-13T02:59:14;98138.41;;;2.62;70.29
35226;BME280;21813;49.686;21.766;2023-03-13T03:01:40;98131.59;;;2.61;70.21
35226;BME280;21813;49.686;21.766;2023-03-13T03:04:06;98140.09;;;2.63;70.10
35226;BME280;21813;49.686;21.766;2023-03-13T03:06:32;98128.13;;;2.62;70.50
35226;BME280;21813;49.686;21.766;2023-03-13T03:08:58;98131.44;;;2.64;70.67
35226;BME280;21813;49.686;21.766;2023-03-13T03:11:24;98131.44;;;2.64;70.67
35226;BME280;21813;49.686;21.766;2023-03-13T03:13:50;98121.13;;;2.64;70.48
35226;BME280;21813;49.686;21.766;2023-03-13T03:16:16;98126.16;;;2.67;70.18
35226;BME280;21813;49.686;21.766;2023-03-13T03:18:45;98124.47;;;2.66;70.05
35226;BME280;21813;49.686;21.766;2023-03-13T03:21:12;98122.66;;;2.68;70.16
35226;BME280;21813;49.686;21.766;2023-03-13T03:23:38;98125.25;;;2.68;70.56
35226;BME280;21813;49.686;21.766;2023-03-13T03:26:05;98126.88;;;2.69;70.98
35226;BME280;21813;49.686;21.766;2023-03-13T03:28:31;98124.41;;;2.67;70.78
35226;BME280;21813;49.686;21.766;2023-03-13T03:31:03;98133.69;;;2.70;70.81
35226;BME280;21813;49.686;21.766;2023-03-13T03:33:28;98131.19;;;2.68;71.01
35226;BME280;21813;49.686;21.766;2023-03-13T03:36:04;98137.88;;;2.73;70.79
35226;BME280;21813;49.686;21.766;2023-03-13T03:38:30;98143.09;;;2.71;70.94
35226;BME280;21813;49.686;21.766;2023-03-13T03:41:00;98139.75;;;2.69;71.14
35226;BME280;21813;49.686;21.766;2023-03-13T03:43:32;98136.09;;;2.73;71.49
35226;BME280;21813;49.686;21.766;2023-03-13T03:46:34;98129.31;;;2.72;71.45
35226;BME280;21813;49.686;21.766;2023-03-13T03:49:00;98135.38;;;2.71;71.50
35226;BME280;21813;49.686;21.766;2023-03-13T03:51:27;98138.66;;;2.73;71.55
35226;BME280;21813;49.686;21.766;2023-03-13T03:53:53;98141.25;;;2.73;71.56
35226;BME280;21813;49.686;21.766;2023-03-13T03:56:19;98141.25;;;2.73;71.22
35226;BME280;21813;49.686;21.766;2023-03-13T03:58:45;98140.44;;;2.73;71.22
35226;BME280;21813;49.686;21.766;2023-03-13T04:01:11;98147.31;;;2.72;71.28
35226;BME280;21813;49.686;21.766;2023-03-13T04:03:37;98154.94;;;2.74;71.27
35226;BME280;21813;49.686;21.766;2023-03-13T04:06:04;98148.22;;;2.71;71.39
35226;BME280;21813;49.686;21.766;2023-03-13T04:08:34;98157.63;;;2.72;71.74
35226;BME280;21813;49.686;21.766;2023-03-13T04:11:01;98158.34;;;2.74;71.84
35226;BME280;21813;49.686;21.766;2023-03-13T04:13:27;98134.59;;;2.69;72.47
35226;BME280;21813;49.686;21.766;2023-03-13T04:15:56;98143.00;;;2.73;72.90
35226;BME280;21813;49.686;21.766;2023-03-13T04:18:21;98153.38;;;2.71;73.06
35226;BME280;21813;49.686;21.766;2023-03-13T04:20:49;98162.66;;;2.74;73.18
35226;BME280;21813;49.686;21.766;2023-03-13T04:23:15;98156.03;;;2.70;73.16
35226;BME280;21813;49.686;21.766;2023-03-13T04:25:41;98164.63;;;2.68;73.07
35226;BME280;21813;49.686;21.766;2023-03-13T04:28:07;98173.06;;;2.72;72.98
35226;BME280;21813;49.686;21.766;2023-03-13T04:30:34;98175.53;;;2.74;73.18
35226;BME280;21813;49.686;21.766;2023-03-13T04:32:59;98176.53;;;2.71;72.90
35226;BME280;21813;49.686;21.766;2023-03-13T04:35:26;98177.38;;;2.72;72.59
35226;BME280;21813;49.686;21.766;2023-03-13T04:37:51;98171.38;;;2.71;71.65
35226;BME280;21813;49.686;21.766;2023-03-13T04:40:18;98179.94;;;2.72;71.55
35226;BME280;21813;49.686;21.766;2023-03-13T04:42:43;98173.97;;;2.71;72.02
35226;BME280;21813;49.686;21.766;2023-03-13T04:45:11;98174.78;;;2.72;71.20
35226;BME280;21813;49.686;21.766;2023-03-13T04:47:37;98174.88;;;2.70;71.47
35226;BME280;21813;49.686;21.766;2023-03-13T04:50:04;98181.59;;;2.73;71.49
35226;BME280;21813;49.686;21.766;2023-03-13T04:52:30;98185.91;;;2.72;71.53
35226;BME280;21813;49.686;21.766;2023-03-13T04:54:57;98187.72;;;2.70;71.78
35226;BME280;21813;49.686;21.766;2023-03-13T04:57:22;98191.13;;;2.71;71.95
35226;BME280;21813;49.686;21.766;2023-03-13T04:59:49;98182.59;;;2.70;72.32
35226;BME280;21813;49.686;21.766;2023-03-13T05:02:14;98190.47;;;2.67;72.68
35226;BME280;21813;49.686;21.766;2023-03-13T05:04:41;98192.88;;;2.70;72.85
35226;BME280;21813;49.686;21.766;2023-03-13T05:07:07;98197.13;;;2.71;72.42
35226;BME280;21813;49.686;21.766;2023-03-13T05:09:34;98197.94;;;2.72;72.46
35226;BME280;21813;49.686;21.766;2023-03-13T05:11:59;98201.38;;;2.72;73.43
35226;BME280;21813;49.686;21.766;2023-03-13T05:14:25;98192.03;;;2.70;73.11
35226;BME280;21813;49.686;21.766;2023-03-13T05:16:51;98199.69;;;2.71;72.88
35226;BME280;21813;49.686;21.766;2023-03-13T05:19:17;98193.78;;;2.69;72.71
35226;BME280;21813;49.686;21.766;2023-03-13T05:21:43;98194.53;;;2.71;72.76
35226;BME280;21813;49.686;21.766;2023-03-13T05:24:09;98203.84;;;2.74;73.16
35226;BME280;21813;49.686;21.766;2023-03-13T05:26:34;98197.06;;;2.73;73.31
35226;BME280;21813;49.686;21.766;2023-03-13T05:29:01;98199.53;;;2.74;73.82
35226;BME280;21813;49.686;21.766;2023-03-13T05:31:27;98201.19;;;2.75;74.13
35226;BME280;21813;49.686;21.766;2023-03-13T05:33:55;98197.84;;;2.73;74.60
35226;BME280;21813;49.686;21.766;2023-03-13T05:36:20;98199.53;;;2.74;74.75
35226;BME280;21813;49.686;21.766;2023-03-13T05:38:47;98206.34;;;2.75;75.49
35226;BME280;21813;49.686;21.766;2023-03-13T05:41:13;98202.25;;;2.71;75.97
35226;BME280;21813;49.686;21.766;2023-03-13T05:43:39;98205.75;;;2.70;76.73
35226;BME280;21813;49.686;21.766;2023-03-13T05:46:05;98203.16;;;2.70;76.01
35226;BME280;21813;49.686;21.766;2023-03-13T05:48:32;98198.91;;;2.69;76.55
35226;BME280;21813;49.686;21.766;2023-03-13T05:50:58;98202.25;;;2.71;76.78
35226;BME280;21813;49.686;21.766;2023-03-13T05:53:33;98187.00;;;2.68;76.40
35226;BME280;21813;49.686;21.766;2023-03-13T05:55:58;98185.91;;;2.72;75.60
35226;BME280;21813;49.686;21.766;2023-03-13T05:58:26;98193.47;;;2.75;75.70
35226;BME280;21813;49.686;21.766;2023-03-13T06:01:09;98199.38;;;2.77;75.43
35226;BME280;21813;49.686;21.766;2023-03-13T06:03:38;98204.38;;;2.80;75.86
35226;BME280;21813;49.686;21.766;2023-03-13T06:06:04;98195.75;;;2.81;76.12
35226;BME280;21813;49.686;21.766;2023-03-13T06:08:48;98187.25;;;2.79;76.72
35226;BME280;21813;49.686;21.766;2023-03-13T06:11:18;98179.47;;;2.81;76.68
35226;BME280;21813;49.686;21.766;2023-03-13T06:13:51;98182.88;;;2.81;76.99
35226;BME280;21813;49.686;21.766;2023-03-13T06:16:19;98186.78;;;2.88;76.94
35226;BME280;21813;49.686;21.766;2023-03-13T06:18:45;98195.34;;;2.89;76.58
35226;BME280;21813;49.686;21.766;2023-03-13T06:21:24;98198.56;;;2.92;76.77
35226;BME280;21813;49.686;21.766;2023-03-13T06:23:50;98196.78;;;2.94;76.79
35226;BME280;21813;49.686;21.766;2023-03-13T06:26:24;98205.31;;;2.95;76.33
35226;BME280;21813;49.686;21.766;2023-03-13T06:28:50;98204.50;;;2.94;76.33
35226;BME280;21813;49.686;21.766;2023-03-13T06:31:20;98207.72;;;2.98;76.88
35226;BME280;21813;49.686;21.766;2023-03-13T06:33:46;98204.00;;;3.03;76.91
35226;BME280;21813;49.686;21.766;2023-03-13T06:36:13;98198.03;;;3.03;77.44
35226;BME280;21813;49.686;21.766;2023-03-13T06:38:45;98192.03;;;3.02;77.52
35226;BME280;21813;49.686;21.766;2023-03-13T06:41:28;98208.25;;;3.04;78.28
35226;BME280;21813;49.686;21.766;2023-03-13T06:43:54;98219.16;;;3.09;78.46
35226;BME280;21813;49.686;21.766;2023-03-13T06:46:34;98220.13;;;3.07;79.35
35226;BME280;21813;49.686;21.766;2023-03-13T06:49:03;98208.91;;;3.08;79.49
35226;BME280;21813;49.686;21.766;2023-03-13T06:51:31;98212.22;;;3.10;80.09
35226;BME280;21813;49.686;21.766;2023-03-13T06:53:57;98213.16;;;3.09;80.73
35226;BME280;21813;49.686;21.766;2023-03-13T06:56:23;98213.22;;;3.07;80.80
35226;BME280;21813;49.686;21.766;2023-03-13T06:58:51;98202.88;;;3.09;80.57
35226;BME280;21813;49.686;21.766;2023-03-13T07:01:17;98205.50;;;3.07;80.77
35226;BME280;21813;49.686;21.766;2023-03-13T07:03:43;98213.22;;;3.07;80.58
35226;BME280;21813;49.686;21.766;2023-03-13T07:06:10;98202.94;;;3.07;80.66
35226;BME280;21813;49.686;21.766;2023-03-13T07:08:38;98214.06;;;3.08;80.48
35226;BME280;21813;49.686;21.766;2023-03-13T07:11:06;98208.09;;;3.07;80.61
35226;BME280;21813;49.686;21.766;2023-03-13T07:13:35;98215.81;;;3.07;81.08
35226;BME280;21813;49.686;21.766;2023-03-13T07:16:02;98204.50;;;3.10;80.81
35226;BME280;21813;49.686;21.766;2023-03-13T07:18:32;98205.44;;;3.09;80.64
35226;BME280;21813;49.686;21.766;2023-03-13T07:21:00;98195.97;;;3.09;80.44
35226;BME280;21813;49.686;21.766;2023-03-13T07:23:28;98201.69;;;3.15;80.35
35226;BME280;21813;49.686;21.766;2023-03-13T07:25:59;98196.53;;;3.15;80.72
35226;BME280;21813;49.686;21.766;2023-03-13T07:28:26;98197.13;;;3.20;79.92
35226;BME280;21813;49.686;21.766;2023-03-13T07:30:52;98197.91;;;3.22;80.31
35226;BME280;21813;49.686;21.766;2023-03-13T07:33:20;98205.31;;;3.28;80.23
35226;BME280;21813;49.686;21.766;2023-03-13T07:35:50;98186.94;;;3.34;79.33
35226;BME280;21813;49.686;21.766;2023-03-13T07:38:17;98185.84;;;3.38;79.92
35226;BME280;21813;49.686;21.766;2023-03-13T07:40:50;98170.06;;;3.44;79.70
35226;BME280;21813;49.686;21.766;2023-03-13T07:43:17;98174.91;;;3.50;79.49
35226;BME280;21813;49.686;21.766;2023-03-13T07:48:15;98172.22;;;3.67;78.35
35226;BME280;21813;49.686;21.766;2023-03-13T07:50:41;98172.78;;;3.72;78.48
35226;BME280;21813;49.686;21.766;2023-03-13T07:53:07;98165.72;;;3.76;77.80
35226;BME280;21813;49.686;21.766;2023-03-13T07:55:33;98161.13;;;3.81;79.12
35226;BME280;21813;49.686;21.766;2023-03-13T07:57:58;98162.72;;;3.83;78.43
35226;BME280;21813;49.686;21.766;2023-03-13T08:00:24;98160.72;;;3.88;79.00
35226;BME280;21813;49.686;21.766;2023-03-13T08:02:50;98150.06;;;3.94;78.09
35226;BME280;21813;49.686;21.766;2023-03-13T08:05:16;98137.66;;;4.01;79.28
35226;BME280;21813;49.686;21.766;2023-03-13T08:07:43;98137.97;;;4.11;78.63
35226;BME280;21813;49.686;21.766;2023-03-13T08:10:09;98131.34;;;4.21;76.78
35226;BME280;21813;49.686;21.766;2023-03-13T08:12:35;98117.38;;;4.25;76.86
35226;BME280;21813;49.686;21.766;2023-03-13T08:15:01;98126.94;;;4.37;75.28
35226;BME280;21813;49.686;21.766;2023-03-13T08:17:30;98123.47;;;4.38;76.02
35226;BME280;21813;49.686;21.766;2023-03-13T08:19:56;98118.94;;;4.41;74.99
35226;BME280;21813;49.686;21.766;2023-03-13T08:22:22;98114.25;;;4.48;75.41
35226;BME280;21813;49.686;21.766;2023-03-13T08:24:47;98113.72;;;4.57;74.55
35226;BME280;21813;49.686;21.766;2023-03-13T08:27:14;98103.56;;;4.68;74.34
35226;BME280;21813;49.686;21.766;2023-03-13T08:29:39;98121.34;;;4.87;74.53
35226;BME280;21813;49.686;21.766;2023-03-13T08:32:06;98124.56;;;5.05;74.95
35226;BME280;21813;49.686;21.766;2023-03-13T08:34:31;98121.94;;;5.19;73.25
35226;BME280;21813;49.686;21.766;2023-03-13T08:36:59;98113.53;;;5.29;72.92
35226;BME280;21813;49.686;21.766;2023-03-13T08:39:25;98107.50;;;5.43;73.85
35226;BME280;21813;49.686;21.766;2023-03-13T08:41:51;98115.13;;;5.59;72.30
35226;BME280;21813;49.686;21.766;2023-03-13T08:44:18;98113.72;;;5.80;72.26
35226;BME280;21813;49.686;21.766;2023-03-13T08:46:45;98078.22;;;5.96;70.87
35226;BME280;21813;49.686;21.766;2023-03-13T08:49:12;98090.03;;;6.13;70.43
35226;BME280;21813;49.686;21.766;2023-03-13T08:51:39;98084.25;;;6.22;69.89
35226;BME280;21813;49.686;21.766;2023-03-13T08:54:05;98067.28;;;6.31;69.42
35226;BME280;21813;49.686;21.766;2023-03-13T08:56:32;98076.63;;;6.33;69.72
35226;BME280;21813;49.686;21.766;2023-03-13T08:59:00;98062.53;;;6.37;68.93
35226;BME280;21813;49.686;21.766;2023-03-13T09:01:29;98062.31;;;6.40;70.07
35226;BME280;21813;49.686;21.766;2023-03-13T09:03:56;98059.41;;;6.45;70.16
35226;BME280;21813;49.686;21.766;2023-03-13T09:06:22;98068.53;;;6.50;69.49
35226;BME280;21813;49.686;21.766;2023-03-13T09:08:48;98046.13;;;6.62;68.01
35226;BME280;21813;49.686;21.766;2023-03-13T09:11:19;98055.03;;;6.71;68.10
35226;BME280;21813;49.686;21.766;2023-03-13T09:13:47;98056.38;;;6.76;68.96
35226;BME280;21813;49.686;21.766;2023-03-13T09:16:22;98053.25;;;6.84;67.96
35226;BME280;21813;49.686;21.766;2023-03-13T09:18:48;98062.25;;;6.91;68.26
35226;BME280;21813;49.686;21.766;2023-03-13T09:21:23;98063.50;;;6.98;68.33
35226;BME280;21813;49.686;21.766;2023-03-13T09:23:49;98058.69;;;7.04;69.57
35226;BME280;21813;49.686;21.766;2023-03-13T09:26:18;98072.75;;;7.13;68.02
35226;BME280;21813;49.686;21.766;2023-03-13T09:28:44;98068.41;;;7.14;67.95
35226;BME280;21813;49.686;21.766;2023-03-13T09:31:18;98058.53;;;7.19;67.95
35226;BME280;21813;49.686;21.766;2023-03-13T09:33:45;98065.88;;;7.25;67.48
35226;BME280;21813;49.686;21.766;2023-03-13T09:36:11;98066.72;;;7.25;67.86
35226;BME280;21813;49.686;21.766;2023-03-13T09:38:38;98072.00;;;7.24;67.56
35226;BME280;21813;49.686;21.766;2023-03-13T09:49:02;98075.97;;;7.40;68.19
35226;BME280;21813;49.686;21.766;2023-03-13T09:51:32;98078.22;;;7.45;68.85
35226;BME280;21813;49.686;21.766;2023-03-13T09:56:44;98082.56;;;7.57;68.09
35226;BME280;21813;49.686;21.766;2023-03-13T09:59:12;98076.44;;;7.58;67.78
35226;BME280;21813;49.686;21.766;2023-03-13T10:01:42;98080.78;;;7.58;67.75
35226;BME280;21813;49.686;21.766;2023-03-13T10:04:42;98091.03;;;7.59;68.18
35226;BME280;21813;49.686;21.766;2023-03-13T10:07:10;98067.16;;;7.67;68.60
35226;BME280;21813;49.686;21.766;2023-03-13T10:09:36;98070.34;;;7.70;68.50
35226;BME280;21813;49.686;21.766;2023-03-13T10:14:41;98062.22;;;7.75;67.61
35226;BME280;21813;49.686;21.766;2023-03-13T10:17:21;98058.81;;;7.74;68.05
35226;BME280;21813;49.686;21.766;2023-03-13T10:19:56;98066.50;;;7.76;67.72
35226;BME280;21813;49.686;21.766;2023-03-13T10:22:26;98057.78;;;7.77;67.97
35226;BME280;21813;49.686;21.766;2023-03-13T10:25:00;98049.03;;;7.78;67.98
35226;BME280;21813;49.686;21.766;2023-03-13T10:27:28;98038.19;;;7.84;68.16
35226;BME280;21813;49.686;21.766;2023-03-13T10:29:53;98045.25;;;7.82;69.19
35226;BME280;21813;49.686;21.766;2023-03-13T10:32:26;98047.50;;;7.86;68.87
35226;BME280;21813;49.686;21.766;2023-03-13T10:35:01;98038.47;;;7.92;67.72
35226;BME280;21813;49.686;21.766;2023-03-13T10:37:40;98035.84;;;7.92;68.00
35226;BME280;21813;49.686;21.766;2023-03-13T10:40:23;98038.13;;;7.96;69.66
35226;BME280;21813;49.686;21.766;2023-03-13T10:42:52;98036.84;;;8.02;69.50
35226;BME280;21813;49.686;21.766;2023-03-13T10:45:21;98015.63;;;8.08;68.23
35226;BME280;21813;49.686;21.766;2023-03-13T10:47:54;98021.66;;;8.09;68.33
35226;BME280;21813;49.686;21.766;2023-03-13T10:50:23;98017.88;;;8.13;67.52
35226;BME280;21813;49.686;21.766;2023-03-13T10:55:26;98006.41;;;8.15;67.87
35226;BME280;21813;49.686;21.766;2023-03-13T10:58:04;98013.03;;;8.19;67.71
35226;BME280;21813;49.686;21.766;2023-03-13T11:00:38;97994.38;;;8.14;67.25
35226;BME280;21813;49.686;21.766;2023-03-13T11:03:47;97999.94;;;8.21;67.93
35226;BME280;21813;49.686;21.766;2023-03-13T11:07:03;97992.72;;;8.24;67.26
35226;BME280;21813;49.686;21.766;2023-03-13T11:09:39;97983.19;;;8.25;67.83
35226;BME280;21813;49.686;21.766;2023-03-13T11:12:20;97980.34;;;8.28;67.48
35226;BME280;21813;49.686;21.766;2023-03-13T11:14:55;97983.59;;;8.31;67.65
35226;BME280;21813;49.686;21.766;2023-03-13T11:17:39;97977.19;;;8.35;67.61
35226;BME280;21813;49.686;21.766;2023-03-13T11:20:32;97974.25;;;8.40;68.05
35226;BME280;21813;49.686;21.766;2023-03-13T11:23:18;97991.00;;;8.47;68.22
35226;BME280;21813;49.686;21.766;2023-03-13T11:31:28;97996.91;;;8.38;65.71
35226;BME280;21813;49.686;21.766;2023-03-13T11:37:11;97982.84;;;8.29;66.13
35226;BME280;21813;49.686;21.766;2023-03-13T11:45:56;97966.56;;;8.38;68.17
35226;BME280;21813;49.686;21.766;2023-03-13T11:51:32;97942.25;;;8.51;67.77
35226;BME280;21813;49.686;21.766;2023-03-13T11:54:23;97944.25;;;8.58;67.17
35226;BME280;21813;49.686;21.766;2023-03-13T11:57:20;97924.03;;;8.62;65.84
35226;BME280;21813;49.686;21.766;2023-03-13T12:02:56;97924.41;;;8.57;65.32
35226;BME280;21813;49.686;21.766;2023-03-13T12:05:39;97912.88;;;8.50;65.52
35226;BME280;21813;49.686;21.766;2023-03-13T12:08:25;97900.72;;;8.39;65.33
35226;BME280;21813;49.686;21.766;2023-03-13T12:13:45;97901.28;;;8.43;66.49
35226;BME280;21813;49.686;21.766;2023-03-13T12:16:25;97889.03;;;8.45;67.66
35226;BME280;21813;49.686;21.766;2023-03-13T12:18:59;97906.84;;;8.50;66.30
35226;BME280;21813;49.686;21.766;2023-03-13T12:21:31;97903.31;;;8.51;66.73
35226;BME280;21813;49.686;21.766;2023-03-13T12:26:55;97892.41;;;8.57;66.73
35226;BME280;21813;49.686;21.766;2023-03-13T12:32:11;97900.66;;;8.73;67.47
35226;BME280;21813;49.686;21.766;2023-03-13T12:37:29;97888.13;;;8.78;65.12
35226;BME280;21813;49.686;21.766;2023-03-13T12:42:58;97874.03;;;8.80;65.09
35226;BME280;21813;49.686;21.766;2023-03-13T12:45:27;97868.03;;;8.80;64.61
35226;BME280;21813;49.686;21.766;2023-03-13T12:53:34;97872.53;;;8.78;63.68
35226;BME280;21813;49.686;21.766;2023-03-13T13:01:44;97869.00;;;8.68;65.22
35226;BME280;21813;49.686;21.766;2023-03-13T13:04:16;97850.13;;;8.66;63.48
35226;BME280;21813;49.686;21.766;2023-03-13T13:09:38;97868.81;;;8.60;65.03
35226;BME280;21813;49.686;21.766;2023-03-13T13:12:25;97851.78;;;8.56;65.11
35226;BME280;21813;49.686;21.766;2023-03-13T13:14:58;97840.97;;;8.51;65.22
35226;BME280;21813;49.686;21.766;2023-03-13T13:17:39;97827.03;;;8.52;66.30
35226;BME280;21813;49.686;21.766;2023-03-13T13:22:56;97842.38;;;8.55;64.95
35226;BME280;21813;49.686;21.766;2023-03-13T13:25:32;97825.50;;;8.49;65.45
35226;BME280;21813;49.686;21.766;2023-03-13T13:30:48;97818.09;;;8.33;65.40
35226;BME280;21813;49.686;21.766;2023-03-13T13:35:46;97818.56;;;8.27;65.53
35226;BME280;21813;49.686;21.766;2023-03-13T13:43:30;97810.53;;;8.19;65.28
35226;BME280;21813;49.686;21.766;2023-03-13T13:48:35;97802.06;;;8.17;66.69
35226;BME280;21813;49.686;21.766;2023-03-13T13:53:47;97806.31;;;8.18;66.40
35226;BME280;21813;49.686;21.766;2023-03-13T13:56:48;97789.78;;;8.19;65.82
35226;BME280;21813;49.686;21.766;2023-03-13T14:02:17;97800.41;;;8.16;66.09
35226;BME280;21813;49.686;21.766;2023-03-13T14:05:03;97804.09;;;8.14;66.13
35226;BME280;21813;49.686;21.766;2023-03-13T14:12:55;97779.66;;;8.16;65.68
35226;BME280;21813;49.686;21.766;2023-03-13T14:15:26;97770.47;;;8.12;66.33
35226;BME280;21813;49.686;21.766;2023-03-13T14:18:10;97764.34;;;8.13;65.34
35226;BME280;21813;49.686;21.766;2023-03-13T14:20:38;97768.13;;;8.09;65.29
35226;BME280;21813;49.686;21.766;2023-03-13T14:23:09;97761.38;;;8.07;65.95
35226;BME280;21813;49.686;21.766;2023-03-13T14:25:44;97758.44;;;8.11;66.04
35226;BME280;21813;49.686;21.766;2023-03-13T14:28:18;97757.03;;;8.07;66.56
35226;BME280;21813;49.686;21.766;2023-03-13T14:30:45;97758.91;;;8.05;66.27
35226;BME280;21813;49.686;21.766;2023-03-13T14:33:11;97757.63;;;7.99;66.96
35226;BME280;21813;49.686;21.766;2023-03-13T14:35:38;97746.19;;;8.02;66.18
35226;BME280;21813;49.686;21.766;2023-03-13T14:38:22;97756.81;;;7.99;66.58
35226;BME280;21813;49.686;21.766;2023-03-13T14:40:48;97757.75;;;7.98;66.66
35226;BME280;21813;49.686;21.766;2023-03-13T14:43:22;97764.72;;;7.97;65.90
35226;BME280;21813;49.686;21.766;2023-03-13T14:45:49;97767.78;;;7.91;66.29
35226;BME280;21813;49.686;21.766;2023-03-13T14:48:30;97767.31;;;7.86;66.83
35226;BME280;21813;49.686;21.766;2023-03-13T14:51:14;97761.53;;;7.83;66.95
35226;BME280;21813;49.686;21.766;2023-03-13T14:53:53;97771.09;;;7.82;67.37
35226;BME280;21813;49.686;21.766;2023-03-13T14:56:19;97768.13;;;7.87;67.07
35226;BME280;21813;49.686;21.766;2023-03-13T14:58:46;97774.97;;;7.88;67.33
35226;BME280;21813;49.686;21.766;2023-03-13T15:01:27;97773.56;;;7.84;66.82
35226;BME280;21813;49.686;21.766;2023-03-13T15:04:13;97785.47;;;7.86;67.18
35226;BME280;21813;49.686;21.766;2023-03-13T15:09:58;97800.09;;;7.87;67.54
35226;BME280;21813;49.686;21.766;2023-03-13T15:12:42;97815.44;;;7.90;66.31